Time;durP1;ratioP1;P1;durP2;ratioP2;P2;SDS_P1;SDS_P2;PMS_P1;PMS_P2;Temp;Humidity;BMP_temperature;BMP_pressure;BME280_temperature;BME280_humidity;BME280_pressure;Samples;Min_cycle;Max_cycle;Signal;HPM_P1;HPM_P2
2021/05/26 05:32:30;;;;;;;2.98;1.72;;;;;;;10.57;75.12;100356.42;1722126;77;948484;-64
2021/05/26 05:34:57;;;;;;;4.78;2.20;;;;;;;10.75;74.72;100358.69;1731782;81;25734;-64
2021/05/26 05:37:24;;;;;;;3.40;1.80;;;;;;;10.94;75.05;100356.33;1732492;81;25752;-65
2021/05/26 05:39:52;;;;;;;3.90;1.82;;;;;;;11.16;74.30;100360.34;1733817;81;25896;-63
2021/05/26 05:42:19;;;;;;;5.10;1.90;;;;;;;11.34;73.05;100354.47;1728778;81;27494;-63
2021/05/26 05:44:47;;;;;;;3.67;1.60;;;;;;;11.49;72.05;100362.74;1771015;79;26313;-64
2021/05/26 05:47:14;;;;;;;4.20;1.62;;;;;;;11.67;72.30;100353.31;1731873;81;25745;-64
2021/05/26 05:49:41;;;;;;;3.85;1.50;;;;;;;11.88;72.27;100359.72;1755480;79;25816;-64
2021/05/26 05:52:11;;;;;;;2.27;1.80;;;;;;;12.10;71.43;100364.81;1740286;81;25735;-64
2021/05/26 05:54:38;;;;;;;;;;;;;;;12.24;69.86;100361.95;1747283;81;28421;-63
2021/05/26 05:57:06;;;;;;;3.08;1.70;;;;;;;12.26;69.71;100367.84;1793819;78;25674;-64
2021/05/26 05:59:33;;;;;;;1.87;1.40;;;;;;;12.45;70.36;100372.42;1797926;78;25817;-64
2021/05/26 06:02:00;;;;;;;3.02;1.62;;;;;;;12.60;68.73;100371.68;1793299;78;26311;-63
2021/05/26 06:04:26;;;;;;;2.45;1.40;;;;;;;12.75;68.57;100366.33;1792039;79;25802;-63
2021/05/26 06:06:53;;;;;;;1.30;1.20;;;;;;;12.88;67.94;100384.35;1797756;78;27462;-64
2021/05/26 06:09:20;;;;;;;4.90;1.30;;;;;;;13.01;66.78;100373.08;1794791;78;25785;-62
2021/05/26 06:11:49;;;;;;;1.27;1.17;;;;;;;13.03;65.10;100368.91;1789128;78;26466;-62
2021/05/26 06:14:18;;;;;;;2.80;1.40;;;;;;;13.12;65.14;100372.95;1804199;78;25715;-64
2021/05/26 06:16:44;;;;;;;3.87;2.30;;;;;;;13.21;66.09;100359.34;1799206;78;25703;-64
2021/05/26 06:19:11;;;;;;;4.47;1.40;;;;;;;13.37;65.55;100367.80;1725824;81;28166;-62
2021/05/26 06:21:37;;;;;;;6.12;2.42;;;;;;;13.44;65.04;100378.95;1756323;80;27293;-62
2021/05/26 06:24:12;;;;;;;2.35;1.37;;;;;;;13.52;64.15;100371.88;1738414;80;25884;-64
2021/05/26 06:26:39;;;;;;;1.72;1.62;;;;;;;13.61;62.28;100375.37;1739629;81;26600;-64
2021/05/26 06:29:06;;;;;;;1.60;1.45;;;;;;;13.67;62.70;100375.40;1765482;79;25745;-63
2021/05/26 06:31:33;;;;;;;2.30;1.10;;;;;;;13.71;62.97;100376.36;1753302;79;28233;-63
2021/05/26 06:33:59;;;;;;;2.20;1.20;;;;;;;13.81;61.01;100374.62;1752866;80;27341;-63
2021/05/26 06:36:26;;;;;;;2.30;1.10;;;;;;;13.96;61.99;100377.34;1754725;79;25860;-64
2021/05/26 06:38:52;;;;;;;4.15;1.50;;;;;;;14.03;61.25;100374.09;1721974;81;25663;-65
2021/05/26 06:41:19;;;;;;;3.05;0.80;;;;;;;14.26;61.13;100375.13;1766750;79;25689;-64
2021/05/26 06:43:46;;;;;;;2.83;0.90;;;;;;;14.20;59.31;100375.33;1763654;79;27812;-64
2021/05/26 06:46:12;;;;;;;2.20;1.00;;;;;;;14.13;58.95;100379.15;1755715;79;26034;-64
2021/05/26 06:48:39;;;;;;;2.45;1.00;;;;;;;13.97;59.85;100368.03;1757320;79;25664;-63
2021/05/26 06:51:05;;;;;;;1.27;1.17;;;;;;;13.94;59.58;100382.28;1761662;79;27704;-64
2021/05/26 06:53:31;;;;;;;1.62;1.00;;;;;;;13.85;59.16;100377.47;1758832;79;25692;-63
2021/05/26 06:55:58;;;;;;;2.25;1.02;;;;;;;13.74;58.20;100381.69;1764968;79;27678;-63
2021/05/26 06:58:24;;;;;;;2.45;0.78;;;;;;;13.96;60.13;100380.59;1764999;79;27386;-65
2021/05/26 07:00:50;;;;;;;1.80;0.98;;;;;;;14.16;58.77;100387.98;1768843;79;25945;-65
2021/05/26 07:03:17;;;;;;;1.32;0.80;;;;;;;14.19;59.99;100389.27;1793606;78;25801;-65
2021/05/26 07:05:43;;;;;;;1.10;0.85;;;;;;;14.18;58.37;100393.09;1793890;78;25742;-64
2021/05/26 07:08:09;;;;;;;1.65;0.70;;;;;;;14.21;59.03;100385.64;1788852;78;27499;-64
2021/05/26 07:10:36;;;;;;;3.42;1.22;;;;;;;14.18;57.76;100392.55;1806491;78;25724;-64
2021/05/26 07:13:02;;;;;;;2.05;0.62;;;;;;;14.08;57.27;100401.10;1800935;78;25778;-64
2021/05/26 07:15:29;;;;;;;2.12;1.00;;;;;;;14.04;58.34;100400.72;1795356;78;25713;-65
2021/05/26 07:17:56;;;;;;;2.62;0.90;;;;;;;13.94;57.74;100402.68;1797069;78;25654;-65
2021/05/26 07:20:23;;;;;;;3.05;0.65;;;;;;;13.81;57.41;100391.50;1795608;78;28136;-65
2021/05/26 07:22:50;;;;;;;5.37;0.88;;;;;;;13.73;56.79;100394.48;1756746;79;25711;-65
2021/05/26 07:25:16;;;;;;;2.70;1.00;;;;;;;13.81;58.06;100400.45;1762229;79;25672;-64
2021/05/26 07:27:42;;;;;;;1.12;0.85;;;;;;;13.78;56.44;100410.61;1756129;79;25731;-64
2021/05/26 07:30:10;;;;;;;1.92;1.17;;;;;;;13.73;57.46;100404.58;1727278;82;26630;-62
2021/05/26 07:32:36;;;;;;;1.05;0.90;;;;;;;13.77;58.39;100411.75;1719395;81;27558;-64
2021/05/26 07:35:05;;;;;;;1.57;0.80;;;;;;;13.87;59.30;100417.93;1768761;79;25748;-62
2021/05/26 07:37:31;;;;;;;1.98;0.80;;;;;;;13.90;59.07;100409.91;1766385;79;25776;-63
2021/05/26 07:39:57;;;;;;;8.65;0.80;;;;;;;13.99;58.47;100404.42;1804078;78;25612;-63
2021/05/26 07:42:24;;;;;;;1.52;0.80;;;;;;;13.97;58.60;100410.76;1803164;78;25755;-64
2021/05/26 07:44:50;;;;;;;2.83;0.85;;;;;;;13.97;57.66;100409.40;1799417;78;28166;-64
2021/05/26 07:47:16;;;;;;;3.22;0.75;;;;;;;13.93;57.91;100409.27;1794463;78;25681;-64
2021/05/26 07:49:43;;;;;;;1.07;0.85;;;;;;;14.03;58.54;100406.73;1796377;78;25876;-64
2021/05/26 07:52:12;;;;;;;3.42;0.72;;;;;;;14.27;57.63;100408.00;1798120;78;25800;-64
2021/05/26 07:54:37;;;;;;;1.35;0.70;;;;;;;14.45;56.96;100409.47;1793307;78;25689;-64
2021/05/26 07:57:05;;;;;;;1.55;0.70;;;;;;;14.53;56.82;100398.30;1798145;78;27486;-64
2021/05/26 07:59:31;;;;;;;3.47;1.25;;;;;;;14.84;54.07;100392.43;1767604;79;27300;-63
2021/05/26 08:01:57;;;;;;;2.65;0.72;;;;;;;14.92;55.84;100390.77;1786972;78;25717;-62
2021/05/26 08:04:24;;;;;;;2.72;0.90;;;;;;;15.30;55.49;100383.69;1795382;78;25962;-62
2021/05/26 08:06:50;;;;;;;2.33;0.80;;;;;;;15.92;55.96;100388.39;1792705;78;25846;-60
2021/05/26 08:09:19;;;;;;;2.70;0.60;;;;;;;16.24;54.56;100390.72;1799112;78;26810;-60
2021/05/26 08:11:45;;;;;;;2.95;1.45;;;;;;;16.19;53.60;100393.14;1796268;78;25667;-60
2021/05/26 08:14:12;;;;;;;1.55;0.60;;;;;;;16.38;53.79;100386.28;1796619;78;25889;-59
2021/05/26 08:16:39;;;;;;;1.35;0.80;;;;;;;16.70;52.19;100380.91;1740503;81;25765;-59
2021/05/26 08:19:05;;;;;;;3.70;0.90;;;;;;;16.64;50.25;100389.14;1748323;81;25912;-59
2021/05/26 08:21:32;;;;;;;1.15;0.80;;;;;;;16.57;50.76;100403.39;1741389;81;27494;-60
2021/05/26 08:23:59;;;;;;;1.12;0.85;;;;;;;16.69;50.83;100377.97;1738025;81;25835;-60
2021/05/26 08:26:25;;;;;;;2.15;0.80;;;;;;;16.84;49.62;100370.94;1740991;81;25793;-59
2021/05/26 08:28:53;;;;;;;1.42;0.80;;;;;;;16.77;48.99;100382.47;1736155;81;26005;-59
2021/05/26 08:31:21;;;;;;;3.30;0.80;;;;;;;16.54;49.77;100383.60;1748122;81;25837;-58
2021/05/26 08:33:48;;;;;;;2.90;0.80;;;;;;;16.56;50.52;100386.19;1747410;81;28497;-58
2021/05/26 08:36:15;;;;;;;3.95;0.80;;;;;;;16.48;48.47;100374.87;1734381;81;25652;-58
2021/05/26 08:38:43;;;;;;;4.12;0.88;;;;;;;16.59;50.50;100380.04;1736761;81;25640;-58
2021/05/26 08:41:11;;;;;;;1.37;0.78;;;;;;;16.85;50.32;100373.35;1756945;80;25879;-59
2021/05/26 08:43:41;;;;;;;4.58;1.22;;;;;;;16.76;48.61;100362.56;1733230;81;25734;-59
2021/05/26 08:46:09;;;;;;;2.98;1.45;;;;;;;16.58;50.04;100376.30;1731670;81;27450;-60
2021/05/26 08:48:38;;;;;;;2.37;0.90;;;;;;;16.43;50.88;100367.71;1734714;81;25765;-59
2021/05/26 08:51:06;;;;;;;4.50;1.20;;;;;;;16.55;48.85;100379.16;1733330;81;26408;-60
2021/05/26 08:53:35;;;;;;;1.43;1.00;;;;;;;16.66;48.77;100389.01;1733654;81;26166;-58
2021/05/26 08:56:01;;;;;;;2.22;0.80;;;;;;;16.54;49.41;100375.41;1794270;78;25859;-59
2021/05/26 08:58:28;;;;;;;3.58;0.90;;;;;;;16.57;47.76;100378.23;1796473;78;27454;-59
2021/05/26 09:00:54;;;;;;;3.50;0.78;;;;;;;16.60;49.06;100376.73;1794255;78;25636;-59
2021/05/26 09:03:21;;;;;;;0.85;0.80;;;;;;;16.87;49.83;100366.18;1796899;78;26541;-59
2021/05/26 09:05:53;;;;;;;1.45;0.78;;;;;;;17.02;48.22;100373.61;1787289;78;25798;-59
2021/05/26 09:08:22;;;;;;;2.80;0.85;;;;;;;17.13;47.31;100386.20;1798837;78;25458;-60
2021/05/26 09:11:02;;;;;;;3.30;1.80;;;;;;;17.36;48.32;100371.34;1796335;78;27454;-59
2021/05/26 09:13:40;;;;;;;3.12;0.68;;;;;;;17.49;45.26;100380.26;1801611;78;35524;-59
2021/05/26 09:16:30;;;;;;;1.85;0.70;;;;;;;17.42;46.61;100375.96;1793764;78;25649;-59
2021/05/26 09:19:04;;;;;;;1.57;1.10;;;;;;;17.14;46.63;100384.45;1795908;78;25749;-61
2021/05/26 09:21:50;;;;;;;3.33;1.05;;;;;;;17.11;47.15;100378.90;1791862;78;25744;-59
2021/05/26 09:24:26;;;;;;;2.30;1.37;;;;;;;17.10;48.13;100380.06;1794948;78;27011;-58
2021/05/26 09:26:57;;;;;;;2.70;1.02;;;;;;;17.01;46.57;100380.23;1804254;78;26443;-59
2021/05/26 09:29:37;;;;;;;2.37;2.02;;;;;;;16.77;45.38;100360.61;1790171;78;25680;-59
2021/05/26 09:32:26;;;;;;;3.27;1.00;;;;;;;16.86;46.98;100353.69;1796551;78;26248;-59
2021/05/26 09:34:58;;;;;;;2.77;1.17;;;;;;;17.15;45.90;100358.73;1796631;78;25588;-58
2021/05/26 09:37:31;;;;;;;3.05;1.12;;;;;;;17.15;46.95;100358.73;1790498;78;27550;-59
2021/05/26 09:40:03;;;;;;;2.22;0.98;;;;;;;17.23;46.13;100373.94;1804263;78;25803;-59
2021/05/26 09:42:45;;;;;;;2.47;1.30;;;;;;;17.14;46.59;100378.20;1797964;78;25799;-58
2021/05/26 09:45:19;;;;;;;2.62;0.98;;;;;;;16.94;45.53;100357.61;1800645;78;25820;-58
2021/05/26 09:47:51;;;;;;;4.08;1.02;;;;;;;16.76;46.50;100370.75;1795422;78;26326;-58
2021/05/26 09:50:36;;;;;;;3.08;1.20;;;;;;;16.77;46.84;100367.44;1795731;78;27530;-59
2021/05/26 09:53:11;;;;;;;5.37;1.05;;;;;;;16.88;47.53;100359.59;1798118;78;25712;-57
2021/05/26 09:55:46;;;;;;;2.10;1.02;;;;;;;16.96;47.18;100357.27;1800674;78;26439;-58
2021/05/26 09:58:15;;;;;;;3.08;1.22;;;;;;;17.17;48.47;100354.28;1791282;78;25787;-59
2021/05/26 10:00:46;;;;;;;1.47;1.00;;;;;;;17.48;47.47;100361.67;1799691;78;25497;-58
2021/05/26 10:03:13;;;;;;;1.75;1.15;;;;;;;17.67;46.29;100354.69;1789691;78;27532;-58
2021/05/26 10:05:40;;;;;;;5.60;1.30;;;;;;;17.65;46.42;100355.04;1756724;80;25764;-58
2021/05/26 10:08:12;;;;;;;1.70;0.93;;;;;;;17.67;45.43;100351.95;1748277;80;25563;-58
2021/05/26 10:10:36;;;;;;;1.87;1.10;;;;;;;17.84;45.92;100350.77;1760643;79;26097;-58
2021/05/26 10:13:05;;;;;;;4.95;1.35;;;;;;;17.82;46.26;100351.70;1769700;79;25870;-56
2021/05/26 10:15:34;;;;;;;2.25;1.45;;;;;;;17.89;43.87;100354.63;1764445;79;27260;-60
2021/05/26 10:18:02;;;;;;;5.42;1.30;;;;;;;17.80;45.64;100364.95;1769609;79;25770;-59
2021/05/26 10:20:35;;;;;;;5.03;1.35;;;;;;;17.65;45.47;100346.05;1763461;79;25669;-59
2021/05/26 10:23:03;;;;;;;5.03;1.15;;;;;;;18.01;46.08;100352.34;1770811;79;25903;-58
2021/05/26 10:25:30;;;;;;;3.15;1.05;;;;;;;18.08;45.47;100347.83;1760366;79;25706;-59
2021/05/26 10:27:59;;;;;;;4.30;1.10;;;;;;;18.29;45.02;100347.48;1771996;79;27552;-58
2021/05/26 10:30:29;;;;;;;2.20;1.17;;;;;;;18.52;45.71;100337.75;1758530;80;25881;-58
2021/05/26 10:33:05;;;;;;;2.62;1.02;;;;;;;18.72;43.63;100343.41;1800566;78;25747;-58
2021/05/26 10:35:55;;;;;;;4.22;1.30;;;;;;;18.80;43.87;100330.66;1798479;78;25866;-59
2021/05/26 10:38:21;;;;;;;1.67;0.90;;;;;;;18.93;41.62;100340.29;1798742;78;25771;-58
2021/05/26 10:40:56;;;;;;;2.52;0.90;;;;;;;18.78;42.37;100315.95;1797988;78;27489;-58
2021/05/26 10:43:26;;;;;;;4.92;1.50;;;;;;;18.97;41.70;100326.67;1799055;78;25720;-58
2021/05/26 10:45:56;;;;;;;4.90;1.07;;;;;;;19.27;42.46;100333.62;1794585;78;25724;-58
2021/05/26 10:48:41;;;;;;;;;;;;;;;19.28;41.63;100312.50;1799785;78;26347;-56
2021/05/26 10:51:08;;;;;;;4.22;1.00;;;;;;;19.05;40.09;100318.77;1741330;81;25949;-58
2021/05/26 10:53:43;;;;;;;3.95;1.05;;;;;;;19.32;41.06;100332.53;1744919;81;27950;-58
2021/05/26 10:56:36;;;;;;;2.22;1.00;;;;;;;19.73;41.66;100328.64;1738857;81;25859;-59
2021/05/26 10:59:13;;;;;;;3.08;1.20;;;;;;;20.14;42.06;100300.80;1655430;85;25796;-58
2021/05/26 11:02:10;;;;;;;1.95;0.90;;;;;;;20.36;41.18;100303.78;1649775;85;25859;-59
2021/05/26 11:04:40;;;;;;;2.70;1.20;;;;;;;20.56;41.52;100299.48;1616361;87;26557;-57
2021/05/26 11:07:22;;;;;;;2.80;1.50;;;;;;;20.85;40.53;100298.62;1619294;87;27502;-59
2021/05/26 11:10:07;;;;;;;5.08;1.35;;;;;;;21.20;41.50;100291.85;1613224;87;27402;-58
2021/05/26 11:13:00;;;;;;;3.87;1.10;;;;;;;21.33;38.90;100300.57;1592737;87;26062;-59
2021/05/26 11:15:43;;;;;;;2.55;0.90;;;;;;;21.32;39.03;100292.70;1622558;87;25752;-60
2021/05/26 11:20:53;;;;;;;3.98;0.80;;;;;;;21.05;38.93;100281.91;1624441;87;27518;-59
2021/05/26 11:23:21;;;;;;;3.30;1.10;;;;;;;21.58;39.22;100293.89;1623902;87;25808;-59
2021/05/26 11:25:54;;;;;;;5.33;1.10;;;;;;;21.46;36.55;100287.31;1619018;87;26005;-59
2021/05/26 11:28:34;;;;;;;2.60;0.80;;;;;;;20.98;35.13;100296.98;1631112;85;25755;-59
2021/05/26 11:31:07;;;;;;;4.00;1.00;;;;;;;20.48;36.71;100278.81;1654015;85;25745;-59
2021/05/26 11:33:35;;;;;;;3.37;0.90;;;;;;;20.15;36.22;100277.65;1757957;78;27509;-60
2021/05/26 11:36:03;;;;;;;3.87;0.93;;;;;;;20.05;37.24;100279.69;1794703;78;25772;-61
2021/05/26 11:38:31;;;;;;;4.80;1.12;;;;;;;19.89;37.19;100287.34;1758899;79;26267;-60
2021/05/26 11:41:00;;;;;;;4.83;1.15;;;;;;;20.04;38.83;100276.75;1786191;78;25809;-60
2021/05/26 11:43:32;;;;;;;2.97;1.20;;;;;;;20.38;37.45;100272.62;1796861;78;25707;-59
2021/05/26 11:46:05;;;;;;;2.90;1.87;;;;;;;20.57;38.91;100270.83;1798490;78;27447;-60
2021/05/26 11:48:32;;;;;;;3.00;1.20;;;;;;;21.05;38.73;100282.69;1796995;78;25677;-60
2021/05/26 11:51:00;;;;;;;3.08;0.80;;;;;;;21.43;37.90;100250.34;1794717;78;25755;-60
2021/05/26 11:53:27;;;;;;;5.22;1.17;;;;;;;21.60;37.05;100253.02;1799917;78;27756;-60
2021/05/26 11:56:02;;;;;;;3.60;1.52;;;;;;;21.60;36.85;100290.17;1759684;79;25730;-60
2021/05/26 11:58:36;;;;;;;3.47;3.00;;;;;;;21.29;34.34;100272.86;1757490;79;27919;-60
2021/05/26 12:01:13;;;;;;;4.87;1.02;;;;;;;20.82;36.29;100269.73;1725547;81;25612;-61
2021/05/26 12:03:39;;;;;;;1.82;1.17;;;;;;;20.45;36.52;100274.06;1761596;79;25896;-60
2021/05/26 12:06:06;;;;;;;2.50;1.60;;;;;;;20.07;37.07;100265.00;1766321;79;25767;-59
2021/05/26 12:08:41;;;;;;;2.58;1.35;;;;;;;19.77;37.24;100264.45;1766688;79;25793;-60
2021/05/26 12:11:12;;;;;;;4.15;1.00;;;;;;;19.48;37.38;100266.55;1771393;79;27618;-60
2021/05/26 12:13:44;;;;;;;3.17;1.20;;;;;;;19.71;38.49;100267.27;1729160;81;25787;-60
2021/05/26 12:16:14;;;;;;;3.15;1.20;;;;;;;19.95;38.88;100276.23;1767174;79;25766;-60
2021/05/26 12:19:01;;;;;;;2.95;1.00;;;;;;;20.36;37.74;100260.42;1762954;79;25771;-63
2021/05/26 12:21:30;;;;;;;5.00;1.50;;;;;;;20.78;35.94;100282.06;1736430;81;25723;-60
2021/05/26 12:24:03;;;;;;;1.92;0.70;;;;;;;20.90;34.74;100261.75;1726309;81;30064;-60
2021/05/26 12:26:36;;;;;;;3.27;1.05;;;;;;;20.53;35.08;100245.50;1729491;81;25680;-60
2021/05/26 12:29:09;;;;;;;5.78;1.27;;;;;;;20.19;35.19;100258.47;1729118;81;26018;-60
2021/05/26 12:31:38;;;;;;;3.62;0.70;;;;;;;20.13;35.56;100248.41;1732290;81;25701;-60
2021/05/26 12:34:16;;;;;;;4.30;0.90;;;;;;;20.04;36.16;100245.73;1735510;81;25932;-60
2021/05/26 12:36:53;;;;;;;4.95;0.82;;;;;;;19.96;36.78;100243.51;1731364;81;27618;-60
2021/05/26 12:39:21;;;;;;;5.30;0.93;;;;;;;19.92;36.00;100246.22;1798700;78;25665;-59
2021/05/26 12:41:55;;;;;;;2.95;0.85;;;;;;;19.64;36.73;100242.48;1733439;81;25850;-60
2021/05/26 12:44:25;;;;;;;2.65;0.75;;;;;;;19.53;36.72;100232.75;1739717;81;26394;-60
2021/05/26 12:46:56;;;;;;;;;;;;;;;19.40;36.30;100239.02;1742112;81;25819;-58
2021/05/26 12:49:40;;;;;;;3.92;0.70;;;;;;;19.32;36.28;100242.81;1743776;81;28309;-60
2021/05/26 12:52:10;;;;;;;1.32;0.80;;;;;;;19.70;37.26;100236.89;1732995;82;25877;-60
2021/05/26 12:54:46;;;;;;;6.50;1.00;;;;;;;20.38;37.60;100249.84;1740489;81;25687;-60
2021/05/26 12:57:23;;;;;;;3.05;0.65;;;;;;;20.78;36.49;100226.31;1745191;81;25889;-60
2021/05/26 13:00:03;;;;;;;2.17;1.30;;;;;;;20.92;34.91;100229.76;1740133;81;25683;-61
2021/05/26 13:02:45;;;;;;;3.65;1.00;;;;;;;20.98;35.07;100217.25;1727477;81;28167;-61
2021/05/26 13:05:13;;;;;;;5.00;0.90;;;;;;;20.68;34.64;100235.45;1749909;81;25669;-60
2021/05/26 13:07:44;;;;;;;3.25;0.95;;;;;;;20.47;35.16;100222.88;1721078;81;26525;-60
2021/05/26 13:10:26;;;;;;;2.65;0.80;;;;;;;20.32;35.06;100217.81;1732924;81;25793;-59
2021/05/26 13:12:56;;;;;;;4.00;1.00;;;;;;;20.13;34.71;100216.83;1738996;81;25665;-61
2021/05/26 13:15:34;;;;;;;1.37;0.82;;;;;;;19.90;35.43;100220.29;1733671;81;27626;-61
2021/05/26 13:18:00;;;;;;;3.92;1.15;;;;;;;19.71;35.84;100206.90;1734729;81;26389;-60
2021/05/26 13:20:31;;;;;;;8.38;1.25;;;;;;;19.57;35.30;100204.77;1735170;81;25733;-60
2021/05/26 13:23:01;;;;;;;1.32;0.80;;;;;;;19.63;36.34;100203.88;1736549;81;25785;-61
2021/05/26 13:25:29;;;;;;;2.77;1.27;;;;;;;19.78;35.97;100204.30;1754151;80;33418;-60
2021/05/26 13:27:57;;;;;;;3.58;1.10;;;;;;;20.04;35.35;100197.70;1757692;79;27587;-60
2021/05/26 13:30:26;;;;;;;1.02;0.68;;;;;;;20.09;35.94;100198.73;1802089;78;25861;-60
2021/05/26 13:32:53;;;;;;;2.65;0.90;;;;;;;20.36;35.89;100185.67;1799290;78;25759;-60
2021/05/26 13:35:20;;;;;;;3.17;0.95;;;;;;;20.31;33.62;100195.63;1797194;78;25767;-60
2021/05/26 13:37:47;;;;;;;4.60;1.00;;;;;;;20.17;35.73;100194.91;1768883;79;25854;-61
2021/05/26 13:40:15;;;;;;;5.83;1.10;;;;;;;20.11;35.16;100197.20;1800905;78;27657;-60
2021/05/26 13:42:41;;;;;;;3.52;1.07;;;;;;;20.02;34.33;100193.17;1789796;78;26306;-60
2021/05/26 13:45:11;;;;;;;2.62;1.02;;;;;;;19.86;34.16;100187.31;1791549;78;25959;-61
2021/05/26 13:47:39;;;;;;;1.20;1.10;;;;;;;19.71;34.08;100189.66;1797282;78;25715;-60
2021/05/26 13:50:15;;;;;;;2.75;2.02;;;;;;;19.56;35.44;100174.41;1737249;81;26367;-61
2021/05/26 13:52:36;;;;;;;3.15;1.00;;;;;;;19.56;36.07;100172.22;1744988;81;28163;-61
2021/05/26 13:55:04;;;;;;;1.95;1.07;;;;;;;19.51;36.34;100169.80;1742895;81;25771;-60
2021/05/26 13:57:33;;;;;;;5.45;1.12;;;;;;;19.41;35.70;100162.45;1742088;81;25857;-61
2021/05/26 14:00:00;;;;;;;2.40;0.75;;;;;;;19.29;35.88;100164.06;1748777;81;25847;-61
2021/05/26 14:02:26;;;;;;;8.05;1.00;;;;;;;19.18;36.17;100165.85;1740027;81;26304;-61
2021/05/26 14:04:52;;;;;;;1.85;1.55;;;;;;;19.11;35.91;100176.13;1732819;81;29741;-61
2021/05/26 14:07:18;;;;;;;5.72;1.30;;;;;;;19.12;36.57;100168.14;1741396;81;25784;-60
2021/05/26 14:09:45;;;;;;;5.05;1.42;;;;;;;19.17;36.19;100169.19;1739390;81;25637;-61
2021/05/26 14:12:11;;;;;;;2.20;1.60;;;;;;;19.21;36.60;100169.23;1749268;81;25737;-61
2021/05/26 14:14:38;;;;;;;1.87;0.90;;;;;;;19.28;36.32;100169.91;1742460;81;25701;-60
2021/05/26 14:17:05;;;;;;;4.10;1.20;;;;;;;19.34;36.19;100164.30;1740584;80;27894;-61
2021/05/26 14:19:32;;;;;;;3.33;1.32;;;;;;;19.41;36.15;100161.08;1743672;81;25722;-61
2021/05/26 14:21:58;;;;;;;3.12;1.45;;;;;;;19.50;36.07;100166.88;1742253;81;25715;-61
2021/05/26 14:24:26;;;;;;;2.37;2.10;;;;;;;19.58;35.77;100158.91;1740312;81;25772;-61
2021/05/26 14:26:54;;;;;;;1.90;1.17;;;;;;;19.70;35.91;100151.02;1720871;81;32647;-61
2021/05/26 14:29:20;;;;;;;1.98;1.05;;;;;;;19.76;35.72;100158.58;1741577;81;27525;-61
2021/05/26 14:31:47;;;;;;;1.55;1.10;;;;;;;19.70;35.40;100149.09;1737619;81;25754;-61
2021/05/26 14:34:13;;;;;;;7.80;1.20;;;;;;;19.63;34.67;100151.75;1762041;79;25841;-61
2021/05/26 14:36:42;;;;;;;2.55;1.25;;;;;;;19.53;35.22;100149.64;1754114;79;25819;-61
2021/05/26 14:39:15;;;;;;;6.67;1.62;;;;;;;19.43;35.02;100159.90;1756192;79;25618;-61
2021/05/26 14:41:48;;;;;;;4.20;1.40;;;;;;;19.30;35.07;100153.28;1799041;78;27584;-61
2021/05/26 14:44:15;;;;;;;3.83;1.77;;;;;;;19.22;35.55;100148.30;1785022;78;25790;-61
2021/05/26 14:46:43;;;;;;;3.52;2.25;;;;;;;19.15;34.83;100163.26;1789965;79;25857;-62
2021/05/26 14:49:10;;;;;;;2.47;1.45;;;;;;;19.10;34.63;100155.95;1794000;78;25802;-61
2021/05/26 14:51:36;;;;;;;6.10;1.40;;;;;;;19.15;34.45;100159.14;1788373;78;25741;-61
2021/05/26 14:54:06;;;;;;;4.53;1.90;;;;;;;19.21;34.47;100141.22;1787116;78;28188;-61
2021/05/26 14:56:32;;;;;;;;;;;;;;;19.22;33.59;100143.38;1793968;78;25752;-61
2021/05/26 14:59:01;;;;;;;9.80;1.45;;;;;;;19.17;33.77;100145.07;1809984;78;25598;-59
2021/05/26 15:01:28;;;;;;;2.85;1.22;;;;;;;19.10;34.97;100141.65;1799629;78;25804;-60
2021/05/26 15:03:56;;;;;;;3.10;1.52;;;;;;;19.08;34.06;100152.20;1799000;78;26480;-60
2021/05/26 15:06:25;;;;;;;2.13;1.30;;;;;;;19.06;34.71;100148.27;1791336;78;27486;-61
2021/05/26 15:08:51;;;;;;;13.93;12.82;;;;;;;19.05;35.27;100150.19;1794212;78;25774;-60
2021/05/26 15:11:18;;;;;;;4.08;1.45;;;;;;;19.01;34.82;100132.33;1796435;78;25870;-59
2021/05/26 15:13:47;;;;;;;1.70;1.50;;;;;;;18.97;34.85;100136.98;1793010;78;25696;-60
2021/05/26 15:16:13;;;;;;;2.95;2.15;;;;;;;18.92;35.43;100134.56;1798641;78;25756;-60
2021/05/26 15:18:40;;;;;;;2.77;2.22;;;;;;;18.91;35.43;100136.30;1794581;78;28025;-60
2021/05/26 15:21:08;;;;;;;6.25;2.25;;;;;;;18.84;35.41;100142.45;1798250;78;25855;-60
2021/05/26 15:23:36;;;;;;;2.33;2.02;;;;;;;18.79;35.90;100137.27;1796931;78;25632;-61
2021/05/26 15:26:03;;;;;;;4.50;1.27;;;;;;;18.75;36.25;100133.10;1794363;78;26084;-60
2021/05/26 15:28:31;;;;;;;2.72;1.57;;;;;;;18.74;36.50;100138.36;1790376;78;25786;-61
2021/05/26 15:30:57;;;;;;;5.35;2.80;;;;;;;18.72;36.46;100142.05;1796024;78;28323;-61
2021/05/26 15:33:24;;;;;;;2.87;1.67;;;;;;;18.72;36.71;100141.27;1791971;78;25921;-61
2021/05/26 15:35:50;;;;;;;4.47;3.65;;;;;;;18.69;36.54;100140.63;1798396;78;25826;-62
2021/05/26 15:38:17;;;;;;;4.37;1.72;;;;;;;18.65;35.29;100134.52;1743973;81;25761;-61
2021/05/26 15:40:45;;;;;;;3.87;1.62;;;;;;;18.59;35.89;100125.05;1712448;81;25880;-61
2021/05/26 15:43:12;;;;;;;3.67;2.17;;;;;;;18.58;36.03;100126.19;1731098;81;27507;-60
2021/05/26 15:45:39;;;;;;;4.20;1.75;;;;;;;18.55;35.67;100122.03;1741729;81;25889;-62
2021/05/26 15:48:07;;;;;;;5.85;2.00;;;;;;;18.55;36.54;100122.03;1745432;81;25624;-61
2021/05/26 15:50:34;;;;;;;2.55;2.00;;;;;;;18.55;36.29;100121.44;1738073;81;25730;-61
2021/05/26 15:53:02;;;;;;;5.72;2.50;;;;;;;18.51;35.85;100126.08;1746766;81;25881;-61
2021/05/26 15:55:29;;;;;;;5.45;2.05;;;;;;;18.46;36.23;100125.80;1738670;81;27459;-61
2021/05/26 15:57:55;;;;;;;3.20;2.02;;;;;;;18.46;36.43;100125.02;1747275;81;25673;-61
2021/05/26 16:00:26;;;;;;;2.65;1.98;;;;;;;18.46;35.77;100123.66;1781214;78;25659;-61
2021/05/26 16:02:54;;;;;;;3.55;2.17;;;;;;;18.45;36.54;100117.95;1800059;78;25768;-61
2021/05/26 16:05:22;;;;;;;2.27;1.12;;;;;;;18.42;36.96;100115.38;1795558;78;25644;-61
2021/05/26 16:07:51;;;;;;;2.45;2.25;;;;;;;18.45;37.12;100118.73;1799833;78;27605;-61
2021/05/26 16:10:20;;;;;;;3.92;1.80;;;;;;;18.45;36.98;100115.21;1802956;78;25716;-61
2021/05/26 16:12:49;;;;;;;1.45;1.32;;;;;;;18.42;36.49;100114.57;1805965;78;34879;-61
2021/05/26 16:15:17;;;;;;;4.12;2.02;;;;;;;18.36;36.38;100121.53;1805758;78;25816;-61
2021/05/26 16:17:45;;;;;;;3.35;2.00;;;;;;;18.28;36.84;100104.96;1787131;78;25298;-59
2021/05/26 16:20:13;;;;;;;5.33;2.45;;;;;;;18.25;37.03;100109.01;1741236;81;27496;-60
2021/05/26 16:22:41;;;;;;;5.72;3.90;;;;;;;18.23;37.36;100114.06;1751569;81;26217;-60
2021/05/26 16:25:11;;;;;;;9.68;3.25;;;;;;;18.23;37.52;100111.33;1741660;81;25783;-59
2021/05/26 16:27:37;;;;;;;2.83;1.92;;;;;;;18.20;37.57;100110.69;1737548;81;26004;-59
2021/05/26 16:30:07;;;;;;;4.47;4.08;;;;;;;18.17;37.77;100110.85;1739903;81;25905;-60
2021/05/26 16:32:35;;;;;;;7.58;3.40;;;;;;;18.14;37.83;100114.90;1740610;81;28398;-60
2021/05/26 16:35:03;;;;;;;2.72;2.52;;;;;;;18.11;37.93;100109.56;1746501;81;26360;-59
2021/05/26 16:37:30;;;;;;;4.75;4.45;;;;;;;18.09;38.03;100109.14;1737347;80;26491;-59
2021/05/26 16:39:56;;;;;;;4.60;2.40;;;;;;;18.07;38.50;100111.45;1752162;81;26405;-60
2021/05/26 16:42:28;;;;;;;5.45;3.22;;;;;;;18.05;38.34;100106.93;1747821;81;25830;-60
2021/05/26 16:44:56;;;;;;;5.65;5.12;;;;;;;18.03;38.38;100111.95;1740706;81;27519;-59
2021/05/26 16:47:23;;;;;;;3.77;3.40;;;;;;;17.98;38.40;100114.43;1752782;81;25854;-62
2021/05/26 16:49:50;;;;;;;5.35;3.55;;;;;;;17.92;38.51;100104.93;1752606;81;25772;-61
2021/05/26 16:52:17;;;;;;;2.67;2.47;;;;;;;17.87;38.66;100110.11;1745717;81;26143;-61
2021/05/26 16:54:44;;;;;;;7.10;5.97;;;;;;;17.79;38.63;100102.89;1748182;81;26339;-61
2021/05/26 16:57:14;;;;;;;7.05;5.95;;;;;;;17.72;39.04;100113.15;1744738;81;27458;-61
2021/05/26 16:59:41;;;;;;;15.05;13.98;;;;;;;17.66;39.13;100111.06;1747082;81;25847;-62
2021/05/26 17:02:11;;;;;;;9.75;5.03;;;;;;;17.64;39.46;100109.24;1750933;81;26383;-61
2021/05/26 17:04:37;;;;;;;8.03;7.25;;;;;;;17.61;39.58;100113.51;1643334;77;25739;-61
2021/05/26 17:07:04;;;;;;;6.17;5.58;;;;;;;17.63;39.81;100109.83;1637700;85;26438;-61
2021/05/26 17:09:30;;;;;;;8.80;5.33;;;;;;;17.63;40.16;100107.68;1649138;84;29674;-60
2021/05/26 17:11:57;;;;;;;4.08;3.62;;;;;;;17.61;40.24;100106.67;1647304;84;27268;-61